sensor_id;sensor_type;location;lat;lon;timestamp;pressure;altitude;pressure_sealevel;temperature;humidity
30935;BME280;51033;42.648;23.292;2024-02-21T00:00:46;94478.09;;;5.84;57.31
30935;BME280;51033;42.648;23.292;2024-02-21T00:03:11;94485.50;;;5.72;57.67
30935;BME280;51033;42.648;23.292;2024-02-21T00:05:37;94461.78;;;5.57;57.95
30935;BME280;51033;42.648;23.292;2024-02-21T00:08:02;94460.97;;;5.51;58.20
30935;BME280;51033;42.648;23.292;2024-02-21T00:10:31;94474.66;;;5.74;57.60
30935;BME280;51033;42.648;23.292;2024-02-21T00:13:00;94471.22;;;5.68;57.74
30935;BME280;51033;42.648;23.292;2024-02-21T00:15:25;94458.09;;;5.38;58.41
30935;BME280;51033;42.648;23.292;2024-02-21T00:17:51;94477.84;;;5.45;58.67
30935;BME280;51033;42.648;23.292;2024-02-21T00:20:17;94453.88;;;5.47;58.03
30935;BME280;51033;42.648;23.292;2024-02-21T00:22:43;94469.69;;;5.32;59.09
30935;BME280;51033;42.648;23.292;2024-02-21T00:25:08;94466.50;;;5.35;58.91
30935;BME280;51033;42.648;23.292;2024-02-21T00:27:33;94450.19;;;5.23;59.17
30935;BME280;51033;42.648;23.292;2024-02-21T00:29:59;94464.41;;;5.57;58.45
30935;BME280;51033;42.648;23.292;2024-02-21T00:32:24;94471.28;;;5.48;58.66
30935;BME280;51033;42.648;23.292;2024-02-21T00:34:50;94461.50;;;5.38;58.73
30935;BME280;51033;42.648;23.292;2024-02-21T00:37:15;94475.22;;;5.55;58.67
30935;BME280;51033;42.648;23.292;2024-02-21T00:39:40;94461.78;;;5.57;58.31
30935;BME280;51033;42.648;23.292;2024-02-21T00:42:07;94449.63;;;5.56;57.91
30935;BME280;51033;42.648;23.292;2024-02-21T00:44:33;94462.28;;;5.49;58.47
30935;BME280;51033;42.648;23.292;2024-02-21T00:46:58;94465.47;;;5.41;59.03
30935;BME280;51033;42.648;23.292;2024-02-21T00:49:23;94458.59;;;5.50;58.88
30935;BME280;51033;42.648;23.292;2024-02-21T00:51:49;94458.06;;;5.53;58.43
30935;BME280;51033;42.648;23.292;2024-02-21T00:54:14;94451.72;;;5.59;58.66
30935;BME280;51033;42.648;23.292;2024-02-21T00:56:39;94453.28;;;5.75;58.07
30935;BME280;51033;42.648;23.292;2024-02-21T00:59:05;94433.47;;;5.73;57.88
30935;BME280;51033;42.648;23.292;2024-02-21T01:01:30;94451.69;;;5.74;57.51
30935;BME280;51033;42.648;23.292;2024-02-21T01:03:55;94442.72;;;5.85;57.42
30935;BME280;51033;42.648;23.292;2024-02-21T01:06:21;94438.44;;;5.99;57.50
30935;BME280;51033;42.648;23.292;2024-02-21T01:08:47;94423.13;;;6.02;57.06
30935;BME280;51033;42.648;23.292;2024-02-21T01:11:13;94432.88;;;6.11;56.47
30935;BME280;51033;42.648;23.292;2024-02-21T01:13:39;94428.63;;;6.15;56.55
30935;BME280;51033;42.648;23.292;2024-02-21T01:16:04;94399.09;;;5.98;56.21
30935;BME280;51033;42.648;23.292;2024-02-21T01:18:31;94426.25;;;6.14;56.29
30935;BME280;51033;42.648;23.292;2024-02-21T01:20:57;94374.09;;;5.80;56.06
30935;BME280;51033;42.648;23.292;2024-02-21T01:23:22;94433.16;;;6.05;56.38
30935;BME280;51033;42.648;23.292;2024-02-21T01:25:47;94429.69;;;6.24;55.77
30935;BME280;51033;42.648;23.292;2024-02-21T01:28:13;94413.06;;;6.04;55.49
30935;BME280;51033;42.648;23.292;2024-02-21T01:30:38;94413.94;;;5.79;56.24
30935;BME280;51033;42.648;23.292;2024-02-21T01:33:04;94407.38;;;5.76;55.98
30935;BME280;51033;42.648;23.292;2024-02-21T01:35:29;94426.34;;;5.73;56.29
30935;BME280;51033;42.648;23.292;2024-02-21T01:37:54;94418.75;;;5.56;57.03
30935;BME280;51033;42.648;23.292;2024-02-21T01:40:20;94414.28;;;5.57;57.26
30935;BME280;51033;42.648;23.292;2024-02-21T01:42:45;94422.16;;;5.72;56.53
30935;BME280;51033;42.648;23.292;2024-02-21T01:45:12;94416.34;;;5.75;56.40
30935;BME280;51033;42.648;23.292;2024-02-21T01:47:38;94411.59;;;5.77;56.25
30935;BME280;51033;42.648;23.292;2024-02-21T01:50:04;94411.09;;;5.50;57.01
30935;BME280;51033;42.648;23.292;2024-02-21T01:52:30;94351.28;;;5.20;56.42
30935;BME280;51033;42.648;23.292;2024-02-21T01:54:57;94404.78;;;5.51;56.50
30935;BME280;51033;42.648;23.292;2024-02-21T01:57:23;94409.81;;;5.37;56.60
30935;BME280;51033;42.648;23.292;2024-02-21T01:59:49;94410.06;;;5.41;56.54
30935;BME280;51033;42.648;23.292;2024-02-21T02:02:15;94390.56;;;5.32;56.46
30935;BME280;51033;42.648;23.292;2024-02-21T02:04:42;94390.81;;;5.15;56.98
30935;BME280;51033;42.648;23.292;2024-02-21T02:07:07;94392.66;;;5.35;56.15
30935;BME280;51033;42.648;23.292;2024-02-21T02:09:33;94408.50;;;5.30;56.51
30935;BME280;51033;42.648;23.292;2024-02-21T02:11:59;94394.25;;;5.21;56.79
30935;BME280;51033;42.648;23.292;2024-02-21T02:14:25;94397.91;;;5.45;56.12
30935;BME280;51033;42.648;23.292;2024-02-21T02:16:50;94372.09;;;5.37;56.25
30935;BME280;51033;42.648;23.292;2024-02-21T02:19:16;94391.59;;;5.46;56.43
30935;BME280;51033;42.648;23.292;2024-02-21T02:21:46;94395.81;;;5.52;55.97
30935;BME280;51033;42.648;23.292;2024-02-21T02:24:13;94381.03;;;5.56;56.27
30935;BME280;51033;42.648;23.292;2024-02-21T02:26:39;94382.56;;;5.77;55.31
30935;BME280;51033;42.648;23.292;2024-02-21T02:29:05;94389.41;;;5.73;55.64
30935;BME280;51033;42.648;23.292;2024-02-21T02:31:30;94383.06;;;5.74;55.64
30935;BME280;51033;42.648;23.292;2024-02-21T02:33:56;94395.22;;;5.80;55.46
30935;BME280;51033;42.648;23.292;2024-02-21T02:36:21;94339.84;;;5.55;55.33
30935;BME280;51033;42.648;23.292;2024-02-21T02:38:46;94387.84;;;5.77;55.34
30935;BME280;51033;42.648;23.292;2024-02-21T02:41:12;94373.09;;;5.56;55.48
30935;BME280;51033;42.648;23.292;2024-02-21T02:43:37;94382.56;;;5.77;55.41
30935;BME280;51033;42.648;23.292;2024-02-21T02:46:03;94384.97;;;5.58;55.24
30935;BME280;51033;42.648;23.292;2024-02-21T02:48:29;94388.91;;;5.71;55.21
30935;BME280;51033;42.648;23.292;2024-02-21T02:50:54;94387.38;;;5.45;55.57
30935;BME280;51033;42.648;23.292;2024-02-21T02:53:20;94371.06;;;5.33;56.03
30935;BME280;51033;42.648;23.292;2024-02-21T02:55:45;94390.81;;;5.45;55.64
30935;BME280;51033;42.648;23.292;2024-02-21T02:58:11;94391.84;;;5.49;56.08
30935;BME280;51033;42.648;23.292;2024-02-21T03:00:36;94361.31;;;5.23;56.12
30935;BME280;51033;42.648;23.292;2024-02-21T03:03:02;94387.34;;;5.50;55.93
30935;BME280;51033;42.648;23.292;2024-02-21T03:05:30;94382.09;;;5.50;55.62
30935;BME280;51033;42.648;23.292;2024-02-21T03:07:56;94387.91;;;5.47;56.14
30935;BME280;51033;42.648;23.292;2024-02-21T03:10:22;94388.94;;;5.51;56.08
30935;BME280;51033;42.648;23.292;2024-02-21T03:12:47;94392.06;;;5.68;55.79
30935;BME280;51033;42.648;23.292;2024-02-21T03:15:13;94394.19;;;5.66;55.50
30935;BME280;51033;42.648;23.292;2024-02-21T03:17:39;94374.72;;;5.42;55.35
30935;BME280;51033;42.648;23.292;2024-02-21T03:20:06;94390.03;;;5.35;55.74
30935;BME280;51033;42.648;23.292;2024-02-21T03:22:35;94408.97;;;5.72;55.57
30935;BME280;51033;42.648;23.292;2024-02-21T03:25:01;94398.88;;;5.84;54.54
30935;BME280;51033;42.648;23.292;2024-02-21T03:27:26;94393.66;;;5.69;54.82
30935;BME280;51033;42.648;23.292;2024-02-21T03:29:51;94404.69;;;5.91;54.54
30935;BME280;51033;42.648;23.292;2024-02-21T03:32:17;94416.06;;;5.87;54.19
30935;BME280;51033;42.648;23.292;2024-02-21T03:34:42;94412.09;;;5.79;54.88
30935;BME280;51033;42.648;23.292;2024-02-21T03:37:07;94411.09;;;5.65;54.77
30935;BME280;51033;42.648;23.292;2024-02-21T03:39:33;94413.47;;;5.67;54.91
30935;BME280;51033;42.648;23.292;2024-02-21T03:41:59;94389.19;;;5.65;54.51
30935;BME280;51033;42.648;23.292;2024-02-21T03:44:30;94416.84;;;5.82;53.99
30935;BME280;51033;42.648;23.292;2024-02-21T03:46:56;94422.66;;;5.79;54.33
30935;BME280;51033;42.648;23.292;2024-02-21T03:49:21;94420.53;;;5.91;54.12
30935;BME280;51033;42.648;23.292;2024-02-21T03:51:47;94418.16;;;5.85;53.81
30935;BME280;51033;42.648;23.292;2024-02-21T03:54:13;94416.00;;;5.97;53.60
30935;BME280;51033;42.648;23.292;2024-02-21T03:56:38;94421.06;;;5.83;53.71
30935;BME280;51033;42.648;23.292;2024-02-21T03:59:08;94408.41;;;5.80;54.07
30935;BME280;51033;42.648;23.292;2024-02-21T04:01:36;94399.41;;;5.91;53.62
30935;BME280;51033;42.648;23.292;2024-02-21T04:04:01;94422.34;;;6.01;53.68
30935;BME280;51033;42.648;23.292;2024-02-21T04:06:27;94418.41;;;5.93;53.90
30935;BME280;51033;42.648;23.292;2024-02-21T04:08:53;94403.13;;;5.80;53.97
30935;BME280;51033;42.648;23.292;2024-02-21T04:11:18;94409.94;;;6.02;53.85
30935;BME280;51033;42.648;23.292;2024-02-21T04:13:47;94413.34;;;6.02;53.72
30935;BME280;51033;42.648;23.292;2024-02-21T04:16:15;94412.28;;;6.03;53.35
30935;BME280;51033;42.648;23.292;2024-02-21T04:18:41;94410.47;;;5.93;53.87
30935;BME280;51033;42.648;23.292;2024-02-21T04:21:06;94404.91;;;6.05;53.43
30935;BME280;51033;42.648;23.292;2024-02-21T04:23:32;94403.06;;;6.00;53.66
30935;BME280;51033;42.648;23.292;2024-02-21T04:25:57;94409.34;;;6.20;53.02
30935;BME280;51033;42.648;23.292;2024-02-21T04:28:22;94393.25;;;6.21;52.74
30935;BME280;51033;42.648;23.292;2024-02-21T04:30:48;94419.41;;;6.18;52.94
30935;BME280;51033;42.648;23.292;2024-02-21T04:33:13;94413.84;;;6.09;53.15
30935;BME280;51033;42.648;23.292;2024-02-21T04:35:38;94410.19;;;6.05;53.00
30935;BME280;51033;42.648;23.292;2024-02-21T04:38:04;94419.41;;;6.08;52.81
30935;BME280;51033;42.648;23.292;2024-02-21T04:40:30;94407.78;;;6.04;52.54
30935;BME280;51033;42.648;23.292;2024-02-21T04:42:56;94415.22;;;5.96;52.85
30935;BME280;51033;42.648;23.292;2024-02-21T04:45:22;94422.56;;;6.10;52.65
30935;BME280;51033;42.648;23.292;2024-02-21T04:47:47;94419.94;;;6.05;52.39
30935;BME280;51033;42.648;23.292;2024-02-21T04:50:12;94379.38;;;5.80;52.28
30935;BME280;51033;42.648;23.292;2024-02-21T04:52:38;94427.59;;;6.06;52.36
30935;BME280;51033;42.648;23.292;2024-02-21T04:55:03;94417.03;;;6.16;52.11
30935;BME280;51033;42.648;23.292;2024-02-21T04:57:29;94424.66;;;6.13;51.96
30935;BME280;51033;42.648;23.292;2024-02-21T04:59:54;94398.53;;;6.11;51.84
30935;BME280;51033;42.648;23.292;2024-02-21T05:02:19;94405.66;;;6.26;51.45
30935;BME280;51033;42.648;23.292;2024-02-21T05:04:47;94410.88;;;6.36;51.12
30935;BME280;51033;42.648;23.292;2024-02-21T05:07:13;94360.31;;;5.93;51.19
30935;BME280;51033;42.648;23.292;2024-02-21T05:09:38;94424.63;;;6.33;51.37
30935;BME280;51033;42.648;23.292;2024-02-21T05:12:04;94422.97;;;6.42;51.10
30935;BME280;51033;42.648;23.292;2024-02-21T05:14:29;94429.69;;;6.24;50.64
30935;BME280;51033;42.648;23.292;2024-02-21T05:16:55;94428.88;;;6.14;50.99
30935;BME280;51033;42.648;23.292;2024-02-21T05:19:20;94423.91;;;5.97;50.98
30935;BME280;51033;42.648;23.292;2024-02-21T05:21:45;94406.19;;;6.08;50.50
30935;BME280;51033;42.648;23.292;2024-02-21T05:24:11;94429.75;;;5.94;51.06
30935;BME280;51033;42.648;23.292;2024-02-21T05:26:36;94434.00;;;5.90;51.58
30935;BME280;51033;42.648;23.292;2024-02-21T05:29:02;94420.56;;;5.81;51.81
30935;BME280;51033;42.648;23.292;2024-02-21T05:31:43;94424.81;;;5.72;52.21
30935;BME280;51033;42.648;23.292;2024-02-21T05:34:20;94433.78;;;5.71;52.65
30935;BME280;51033;42.648;23.292;2024-02-21T05:36:45;94427.97;;;5.69;52.81
30935;BME280;51033;42.648;23.292;2024-02-21T05:39:11;94434.28;;;5.68;53.01
30935;BME280;51033;42.648;23.292;2024-02-21T05:41:37;94386.56;;;5.49;52.67
30935;BME280;51033;42.648;23.292;2024-02-21T05:44:02;94445.34;;;5.90;52.77
30935;BME280;51033;42.648;23.292;2024-02-21T05:46:28;94429.00;;;5.68;52.86
30935;BME280;51033;42.648;23.292;2024-02-21T05:48:53;94425.31;;;5.64;53.65
30935;BME280;51033;42.648;23.292;2024-02-21T05:51:19;94439.56;;;5.68;53.58
30935;BME280;51033;42.648;23.292;2024-02-21T05:53:44;94422.47;;;5.40;53.86
30935;BME280;51033;42.648;23.292;2024-02-21T05:56:11;94452.25;;;5.71;53.43
30935;BME280;51033;42.648;23.292;2024-02-21T05:58:37;94451.19;;;5.67;53.80
30935;BME280;51033;42.648;23.292;2024-02-21T06:01:03;94447.47;;;5.68;53.22
30935;BME280;51033;42.648;23.292;2024-02-21T06:03:29;94443.81;;;5.39;53.73
30935;BME280;51033;42.648;23.292;2024-02-21T06:05:54;94450.69;;;5.45;53.83
30935;BME280;51033;42.648;23.292;2024-02-21T06:08:20;94451.72;;;5.59;53.74
30935;BME280;51033;42.648;23.292;2024-02-21T06:10:45;94452.28;;;5.51;53.73
30935;BME280;51033;42.648;23.292;2024-02-21T06:13:11;94462.81;;;5.41;54.13
30935;BME280;51033;42.648;23.292;2024-02-21T06:15:36;94466.50;;;5.40;54.62
30935;BME280;51033;42.648;23.292;2024-02-21T06:18:02;94466.81;;;5.33;54.88
30935;BME280;51033;42.648;23.292;2024-02-21T06:20:27;94466.50;;;5.40;55.03
30935;BME280;51033;42.648;23.292;2024-02-21T06:22:53;94466.50;;;5.40;55.14
30935;BME280;51033;42.648;23.292;2024-02-21T06:25:19;94470.72;;;5.76;54.29
30935;BME280;51033;42.648;23.292;2024-02-21T06:27:44;94475.44;;;5.89;53.96
30935;BME280;51033;42.648;23.292;2024-02-21T06:30:10;94465.91;;;5.93;53.69
30935;BME280;51033;42.648;23.292;2024-02-21T06:32:35;94458.00;;;5.88;53.53
30935;BME280;51033;42.648;23.292;2024-02-21T06:35:01;94480.72;;;5.89;53.95
30935;BME280;51033;42.648;23.292;2024-02-21T06:37:27;94479.63;;;6.00;54.21
30935;BME280;51033;42.648;23.292;2024-02-21T06:39:52;94480.44;;;5.96;53.70
30935;BME280;51033;42.648;23.292;2024-02-21T06:42:18;94467.78;;;5.88;53.81
30935;BME280;51033;42.648;23.292;2024-02-21T06:44:46;94479.63;;;6.06;54.11
30935;BME280;51033;42.648;23.292;2024-02-21T06:47:11;94489.66;;;6.09;53.69
30935;BME280;51033;42.648;23.292;2024-02-21T06:49:37;94498.84;;;6.31;53.54
30935;BME280;51033;42.648;23.292;2024-02-21T06:52:04;94482.25;;;6.26;53.04
30935;BME280;51033;42.648;23.292;2024-02-21T06:54:30;94496.75;;;6.13;53.52
30935;BME280;51033;42.648;23.292;2024-02-21T06:56:55;94503.94;;;5.97;54.00
30935;BME280;51033;42.648;23.292;2024-02-21T06:59:21;94484.69;;;5.92;54.08
30935;BME280;51033;42.648;23.292;2024-02-21T07:01:48;94467.00;;;5.82;53.81
30935;BME280;51033;42.648;23.292;2024-02-21T07:04:14;94481.22;;;6.07;53.67
30935;BME280;51033;42.648;23.292;2024-02-21T07:06:40;94474.34;;;6.06;54.30
30935;BME280;51033;42.648;23.292;2024-02-21T07:09:05;94502.88;;;6.04;54.59
30935;BME280;51033;42.648;23.292;2024-02-21T07:11:30;94500.47;;;6.07;54.36
30935;BME280;51033;42.648;23.292;2024-02-21T07:13:56;94500.25;;;5.88;54.93
30935;BME280;51033;42.648;23.292;2024-02-21T07:16:21;94480.72;;;5.89;54.86
30935;BME280;51033;42.648;23.292;2024-02-21T07:18:47;94503.41;;;6.00;54.70
30935;BME280;51033;42.648;23.292;2024-02-21T07:21:12;94503.38;;;6.11;54.66
30935;BME280;51033;42.648;23.292;2024-02-21T07:23:43;94506.53;;;6.13;54.48
30935;BME280;51033;42.648;23.292;2024-02-21T07:26:08;94509.72;;;6.05;54.56
30935;BME280;51033;42.648;23.292;2024-02-21T07:28:34;94465.97;;;5.63;54.66
30935;BME280;51033;42.648;23.292;2024-02-21T07:31:00;94495.47;;;6.06;54.10
30935;BME280;51033;42.648;23.292;2024-02-21T07:33:25;94489.66;;;6.04;54.56
30935;BME280;51033;42.648;23.292;2024-02-21T07:35:51;94478.91;;;5.60;55.26
30935;BME280;51033;42.648;23.292;2024-02-21T07:38:16;94508.16;;;5.93;55.09
30935;BME280;51033;42.648;23.292;2024-02-21T07:40:46;94484.69;;;5.87;55.32
30935;BME280;51033;42.648;23.292;2024-02-21T07:43:11;94486.00;;;5.89;55.11
30935;BME280;51033;42.648;23.292;2024-02-21T07:45:36;94459.88;;;5.78;55.37
30935;BME280;51033;42.648;23.292;2024-02-21T07:48:03;94487.28;;;6.02;54.65
30935;BME280;51033;42.648;23.292;2024-02-21T07:50:29;94508.13;;;6.19;54.94
30935;BME280;51033;42.648;23.292;2024-02-21T07:52:54;94473.81;;;6.09;54.51
30935;BME280;51033;42.648;23.292;2024-02-21T07:55:19;94500.75;;;6.26;54.53
30935;BME280;51033;42.648;23.292;2024-02-21T07:57:45;94490.06;;;6.46;53.73
30935;BME280;51033;42.648;23.292;2024-02-21T08:00:10;94499.78;;;6.61;53.70
30935;BME280;51033;42.648;23.292;2024-02-21T08:02:42;94481.66;;;6.44;53.72
30935;BME280;51033;42.648;23.292;2024-02-21T08:05:09;94484.09;;;6.25;54.73
30935;BME280;51033;42.648;23.292;2024-02-21T08:07:34;94491.59;;;6.62;53.94
30935;BME280;51033;42.648;23.292;2024-02-21T08:09:59;94502.66;;;6.74;54.09
30935;BME280;51033;42.648;23.292;2024-02-21T08:12:25;94494.44;;;6.76;53.75
30935;BME280;51033;42.648;23.292;2024-02-21T08:14:50;94496.78;;;6.88;53.43
30935;BME280;51033;42.648;23.292;2024-02-21T08:17:15;94494.66;;;6.90;53.51
30935;BME280;51033;42.648;23.292;2024-02-21T08:19:41;94477.75;;;6.80;53.13
30935;BME280;51033;42.648;23.292;2024-02-21T08:22:06;94498.00;;;7.00;53.06
30935;BME280;51033;42.648;23.292;2024-02-21T08:24:32;94477.78;;;6.75;53.21
30935;BME280;51033;42.648;23.292;2024-02-21T08:26:57;94468.25;;;6.84;52.88
30935;BME280;51033;42.648;23.292;2024-02-21T08:29:22;94475.56;;;6.98;52.46
30935;BME280;51033;42.648;23.292;2024-02-21T08:31:48;94493.50;;;7.01;51.81
30935;BME280;51033;42.648;23.292;2024-02-21T08:34:13;94494.97;;;6.78;51.49
30935;BME280;51033;42.648;23.292;2024-02-21T08:36:39;94470.66;;;6.71;51.15
30935;BME280;51033;42.648;23.292;2024-02-21T08:39:04;94492.50;;;6.92;50.99
30935;BME280;51033;42.648;23.292;2024-02-21T08:41:33;94486.31;;;7.11;49.60
30935;BME280;51033;42.648;23.292;2024-02-21T08:43:59;94490.56;;;7.07;50.37
30935;BME280;51033;42.648;23.292;2024-02-21T08:46:25;94488.56;;;6.89;50.03
30935;BME280;51033;42.648;23.292;2024-02-21T08:48:51;94466.19;;;6.71;50.32
30935;BME280;51033;42.648;23.292;2024-02-21T08:51:17;94494.03;;;7.03;50.27
30935;BME280;51033;42.648;23.292;2024-02-21T08:53:43;94485.78;;;7.09;50.14
30935;BME280;51033;42.648;23.292;2024-02-21T08:56:09;94428.28;;;6.86;50.19
30935;BME280;51033;42.648;23.292;2024-02-21T08:58:39;94501.34;;;7.16;50.14
30935;BME280;51033;42.648;23.292;2024-02-21T09:01:05;94499.38;;;6.93;50.83
30935;BME280;51033;42.648;23.292;2024-02-21T09:03:31;94474.59;;;6.83;50.72
30935;BME280;51033;42.648;23.292;2024-02-21T09:05:57;94483.47;;;7.03;50.85
30935;BME280;51033;42.648;23.292;2024-02-21T09:08:23;94497.63;;;7.22;50.37
30935;BME280;51033;42.648;23.292;2024-02-21T09:10:49;94493.19;;;7.12;50.70
30935;BME280;51033;42.648;23.292;2024-02-21T09:13:15;94504.06;;;7.06;51.67
30935;BME280;51033;42.648;23.292;2024-02-21T09:15:40;94499.72;;;7.20;51.87
30935;BME280;51033;42.648;23.292;2024-02-21T09:18:05;94495.09;;;7.02;51.46
30935;BME280;51033;42.648;23.292;2024-02-21T09:20:31;94500.00;;;7.23;50.44
30935;BME280;51033;42.648;23.292;2024-02-21T09:22:57;94500.19;;;7.32;50.03
30935;BME280;51033;42.648;23.292;2024-02-21T09:25:22;94492.16;;;7.08;50.54
30935;BME280;51033;42.648;23.292;2024-02-21T09:27:47;94487.09;;;7.12;51.40
30935;BME280;51033;42.648;23.292;2024-02-21T09:30:13;94490.56;;;7.07;51.22
30935;BME280;51033;42.648;23.292;2024-02-21T09:32:38;94497.69;;;7.12;51.60
30935;BME280;51033;42.648;23.292;2024-02-21T09:35:04;94496.16;;;7.01;51.17
30935;BME280;51033;42.648;23.292;2024-02-21T09:37:32;94486.56;;;7.10;51.61
30935;BME280;51033;42.648;23.292;2024-02-21T09:39:58;94492.25;;;7.32;51.62
30935;BME280;51033;42.648;23.292;2024-02-21T09:42:40;94491.94;;;7.39;50.46
30935;BME280;51033;42.648;23.292;2024-02-21T09:45:21;94497.03;;;7.30;50.27
30935;BME280;51033;42.648;23.292;2024-02-21T09:48:04;94501.25;;;7.31;50.20
30935;BME280;51033;42.648;23.292;2024-02-21T09:50:34;94472.06;;;7.41;49.18
30935;BME280;51033;42.648;23.292;2024-02-21T09:53:02;94484.59;;;7.30;51.33
30935;BME280;51033;42.648;23.292;2024-02-21T09:55:29;94492.03;;;7.28;51.78
30935;BME280;51033;42.648;23.292;2024-02-21T09:57:58;94491.38;;;6.59;53.75
30935;BME280;51033;42.648;23.292;2024-02-21T10:00:24;94493.25;;;7.02;53.04
30935;BME280;51033;42.648;23.292;2024-02-21T10:02:49;94492.91;;;7.14;52.34
30935;BME280;51033;42.648;23.292;2024-02-21T10:05:15;94476.75;;;7.15;51.63
30935;BME280;51033;42.648;23.292;2024-02-21T10:07:41;94485.84;;;7.43;50.49
30935;BME280;51033;42.648;23.292;2024-02-21T10:10:07;94476.31;;;7.42;50.03
30935;BME280;51033;42.648;23.292;2024-02-21T10:12:32;94484.50;;;7.41;48.98
30935;BME280;51033;42.648;23.292;2024-02-21T10:17:27;94490.72;;;7.60;49.11
30935;BME280;51033;42.648;23.292;2024-02-21T10:19:53;94436.56;;;7.47;48.00
30935;BME280;51033;42.648;23.292;2024-02-21T10:22:18;94488.28;;;7.63;47.63
30935;BME280;51033;42.648;23.292;2024-02-21T10:24:45;94414.78;;;7.26;47.63
30935;BME280;51033;42.648;23.292;2024-02-21T10:27:11;94473.78;;;7.61;47.82
30935;BME280;51033;42.648;23.292;2024-02-21T10:29:37;94438.25;;;7.38;48.08
30935;BME280;51033;42.648;23.292;2024-02-21T10:32:11;94465.88;;;7.56;48.40
30935;BME280;51033;42.648;23.292;2024-02-21T10:34:38;94457.38;;;7.88;47.13
30935;BME280;51033;42.648;23.292;2024-02-21T10:37:05;94455.94;;;7.71;46.97
30935;BME280;51033;42.648;23.292;2024-02-21T10:39:38;94447.03;;;7.62;47.45
30935;BME280;51033;42.648;23.292;2024-02-21T10:42:04;94439.19;;;7.81;47.10
30935;BME280;51033;42.648;23.292;2024-02-21T10:44:32;94433.75;;;7.96;47.26
30935;BME280;51033;42.648;23.292;2024-02-21T10:46:58;94407.31;;;8.15;46.41
30935;BME280;51033;42.648;23.292;2024-02-21T10:49:26;94413.66;;;8.14;46.29
30935;BME280;51033;42.648;23.292;2024-02-21T10:55:35;94408.44;;;8.51;45.95
30935;BME280;51033;42.648;23.292;2024-02-21T10:58:05;94395.69;;;8.72;44.94
30935;BME280;51033;42.648;23.292;2024-02-21T11:00:30;94404.63;;;8.57;44.11
30935;BME280;51033;42.648;23.292;2024-02-21T11:02:58;94381.75;;;8.24;44.80
30935;BME280;51033;42.648;23.292;2024-02-21T11:05:24;94393.94;;;8.25;45.52
30935;BME280;51033;42.648;23.292;2024-02-21T11:07:50;94365.84;;;8.24;45.80
30935;BME280;51033;42.648;23.292;2024-02-21T11:10:22;94341.09;;;8.52;44.24
30935;BME280;51033;42.648;23.292;2024-02-21T11:12:48;94386.94;;;8.90;43.97
30935;BME280;51033;42.648;23.292;2024-02-21T11:15:13;94377.13;;;8.72;44.15
30935;BME280;51033;42.648;23.292;2024-02-21T11:17:38;94384.16;;;8.82;44.25
30935;BME280;51033;42.648;23.292;2024-02-21T11:20:13;94379.63;;;8.64;42.69
30935;BME280;51033;42.648;23.292;2024-02-21T11:22:42;94384.59;;;8.70;42.03
30935;BME280;51033;42.648;23.292;2024-02-21T11:25:08;94390.19;;;8.50;42.76
30935;BME280;51033;42.648;23.292;2024-02-21T11:27:37;94366.53;;;8.53;43.49
30935;BME280;51033;42.648;23.292;2024-02-21T11:30:05;94374.34;;;8.64;42.97
30935;BME280;51033;42.648;23.292;2024-02-21T11:32:31;94379.84;;;8.30;43.64
30935;BME280;51033;42.648;23.292;2024-02-21T11:35:01;94387.25;;;8.28;43.50
30935;BME280;51033;42.648;23.292;2024-02-21T11:37:29;94344.84;;;8.09;43.18
30935;BME280;51033;42.648;23.292;2024-02-21T11:39:55;94360.44;;;8.34;43.12
30935;BME280;51033;42.648;23.292;2024-02-21T11:42:21;94371.75;;;8.58;42.47
30935;BME280;51033;42.648;23.292;2024-02-21T11:44:47;94332.78;;;8.22;43.41
30935;BME280;51033;42.648;23.292;2024-02-21T11:47:14;94357.50;;;8.36;42.90
30935;BME280;51033;42.648;23.292;2024-02-21T11:49:46;94372.03;;;8.38;43.13
30935;BME280;51033;42.648;23.292;2024-02-21T11:52:14;94345.09;;;8.31;43.22
30935;BME280;51033;42.648;23.292;2024-02-21T11:54:44;94368.66;;;8.33;43.90
30935;BME280;51033;42.648;23.292;2024-02-21T11:57:10;94360.84;;;8.41;43.84
30935;BME280;51033;42.648;23.292;2024-02-21T11:59:36;94349.47;;;8.59;43.50
30935;BME280;51033;42.648;23.292;2024-02-21T12:02:02;94360.00;;;8.65;43.08
30935;BME280;51033;42.648;23.292;2024-02-21T12:04:29;94364.00;;;8.43;43.24
30935;BME280;51033;42.648;23.292;2024-02-21T12:06:57;94340.81;;;8.35;43.08
30935;BME280;51033;42.648;23.292;2024-02-21T12:09:23;94357.56;;;8.49;43.83
30935;BME280;51033;42.648;23.292;2024-02-21T12:11:57;94354.91;;;8.68;43.05
30935;BME280;51033;42.648;23.292;2024-02-21T12:14:24;94362.00;;;8.73;42.77
30935;BME280;51033;42.648;23.292;2024-02-21T12:16:50;94353.53;;;8.52;43.09
30935;BME280;51033;42.648;23.292;2024-02-21T12:19:16;94331.00;;;8.36;43.08
30935;BME280;51033;42.648;23.292;2024-02-21T12:21:42;94348.38;;;8.23;43.83
30935;BME280;51033;42.648;23.292;2024-02-21T12:24:12;94344.06;;;8.27;44.52
30935;BME280;51033;42.648;23.292;2024-02-21T12:26:38;94354.59;;;8.32;44.50
30935;BME280;51033;42.648;23.292;2024-02-21T12:29:04;94342.19;;;8.09;44.48
30935;BME280;51033;42.648;23.292;2024-02-21T12:31:29;94332.97;;;8.06;44.61
30935;BME280;51033;42.648;23.292;2024-02-21T12:33:54;94324.22;;;8.06;44.78
30935;BME280;51033;42.648;23.292;2024-02-21T12:36:20;94338.91;;;8.17;44.80
30935;BME280;51033;42.648;23.292;2024-02-21T12:38:45;94333.97;;;8.10;44.94
30935;BME280;51033;42.648;23.292;2024-02-21T12:41:14;94304.31;;;8.08;44.74
30935;BME280;51033;42.648;23.292;2024-02-21T12:43:39;94337.34;;;8.16;44.76
30935;BME280;51033;42.648;23.292;2024-02-21T12:46:04;94334.19;;;8.14;44.46
30935;BME280;51033;42.648;23.292;2024-02-21T12:48:31;94327.75;;;8.20;44.53
30935;BME280;51033;42.648;23.292;2024-02-21T12:50:57;94320.22;;;8.08;44.45
30935;BME280;51033;42.648;23.292;2024-02-21T12:53:23;94336.25;;;8.17;45.02
30935;BME280;51033;42.648;23.292;2024-02-21T12:55:49;94310.75;;;8.02;44.98
30935;BME280;51033;42.648;23.292;2024-02-21T12:58:15;94328.47;;;8.26;45.10
30935;BME280;51033;42.648;23.292;2024-02-21T13:00:41;94323.97;;;8.26;44.73